sensor_id;sensor_type;location;lat;lon;timestamp;pressure;altitude;pressure_sealevel;temperature;humidity
19108;BME280;9686;48.832;9.126;2024-01-06T00:00:10;97018.91;;;7.40;100.00
19108;BME280;9686;48.832;9.126;2024-01-06T00:02:35;97011.84;;;7.50;100.00
19108;BME280;9686;48.832;9.126;2024-01-06T00:05:00;97018.97;;;7.34;100.00
19108;BME280;9686;48.832;9.126;2024-01-06T00:07:26;97016.19;;;7.48;100.00
19108;BME280;9686;48.832;9.126;2024-01-06T00:09:51;97025.63;;;7.52;100.00
19108;BME280;9686;48.832;9.126;2024-01-06T00:12:17;97028.91;;;7.66;100.00
19108;BME280;9686;48.832;9.126;2024-01-06T00:14:43;97021.03;;;7.72;100.00
19108;BME280;9686;48.832;9.126;2024-01-06T00:17:11;97014.16;;;7.71;100.00
19108;BME280;9686;48.832;9.126;2024-01-06T00:19:36;97023.53;;;7.80;100.00
19108;BME280;9686;48.832;9.126;2024-01-06T00:22:01;97026.91;;;7.87;100.00
19108;BME280;9686;48.832;9.126;2024-01-06T00:24:26;97017.41;;;7.86;100.00
19108;BME280;9686;48.832;9.126;2024-01-06T00:26:52;97018.19;;;7.92;100.00
19108;BME280;9686;48.832;9.126;2024-01-06T00:29:18;97019.84;;;7.96;100.00
19108;BME280;9686;48.832;9.126;2024-01-06T00:31:43;97035.34;;;8.01;100.00
19108;BME280;9686;48.832;9.126;2024-01-06T00:34:08;97027.50;;;8.04;100.00
19108;BME280;9686;48.832;9.126;2024-01-06T00:36:34;97025.97;;;7.92;100.00
19108;BME280;9686;48.832;9.126;2024-01-06T00:38:59;97028.56;;;7.92;100.00
19108;BME280;9686;48.832;9.126;2024-01-06T00:41:24;97028.78;;;7.76;100.00
19108;BME280;9686;48.832;9.126;2024-01-06T00:43:50;97030.47;;;7.78;100.00
19108;BME280;9686;48.832;9.126;2024-01-06T00:46:15;97032.09;;;7.87;100.00
19108;BME280;9686;48.832;9.126;2024-01-06T00:48:41;97026.81;;;7.93;100.00
19108;BME280;9686;48.832;9.126;2024-01-06T00:51:06;97035.03;;;7.62;100.00
19108;BME280;9686;48.832;9.126;2024-01-06T00:53:32;97038.72;;;7.45;100.00
19108;BME280;9686;48.832;9.126;2024-01-06T00:55:57;97048.88;;;7.61;100.00
19108;BME280;9686;48.832;9.126;2024-01-06T00:58:22;97043.59;;;7.67;100.00
19108;BME280;9686;48.832;9.126;2024-01-06T01:00:47;97053.81;;;7.78;100.00
19108;BME280;9686;48.832;9.126;2024-01-06T01:03:13;97052.19;;;7.71;100.00
19108;BME280;9686;48.832;9.126;2024-01-06T01:05:38;97050.63;;;7.59;100.00
19108;BME280;9686;48.832;9.126;2024-01-06T01:08:04;97058.94;;;7.84;100.00
19108;BME280;9686;48.832;9.126;2024-01-06T01:10:29;97054.75;;;7.74;100.00
19108;BME280;9686;48.832;9.126;2024-01-06T01:12:54;97055.72;;;7.67;100.00
19108;BME280;9686;48.832;9.126;2024-01-06T01:15:20;97065.22;;;7.68;100.00
19108;BME280;9686;48.832;9.126;2024-01-06T01:17:45;97065.19;;;7.69;100.00
19108;BME280;9686;48.832;9.126;2024-01-06T01:20:10;97058.28;;;7.68;100.00
19108;BME280;9686;48.832;9.126;2024-01-06T01:22:36;97064.41;;;7.64;100.00
19108;BME280;9686;48.832;9.126;2024-01-06T01:25:01;97066.88;;;7.72;100.00
19108;BME280;9686;48.832;9.126;2024-01-06T01:27:32;97069.34;;;7.80;100.00
19108;BME280;9686;48.832;9.126;2024-01-06T01:29:57;97066.81;;;7.77;100.00
19108;BME280;9686;48.832;9.126;2024-01-06T01:32:23;97064.16;;;7.80;100.00
19108;BME280;9686;48.832;9.126;2024-01-06T01:34:48;97064.22;;;7.77;100.00
19108;BME280;9686;48.832;9.126;2024-01-06T01:37:15;97070.22;;;7.82;100.00
19108;BME280;9686;48.832;9.126;2024-01-06T01:39:40;97071.03;;;7.85;100.00
19108;BME280;9686;48.832;9.126;2024-01-06T01:42:05;97076.28;;;7.82;100.00
19108;BME280;9686;48.832;9.126;2024-01-06T01:44:31;97073.75;;;7.76;100.00
19108;BME280;9686;48.832;9.126;2024-01-06T01:46:56;97082.41;;;7.75;100.00
19108;BME280;9686;48.832;9.126;2024-01-06T01:49:22;97080.59;;;7.82;100.00
19108;BME280;9686;48.832;9.126;2024-01-06T01:51:48;97089.25;;;7.79;100.00
19108;BME280;9686;48.832;9.126;2024-01-06T01:54:14;97080.59;;;7.82;100.00
19108;BME280;9686;48.832;9.126;2024-01-06T01:56:40;97083.19;;;7.80;100.00
19108;BME280;9686;48.832;9.126;2024-01-06T01:59:11;97090.03;;;7.87;100.00
19108;BME280;9686;48.832;9.126;2024-01-06T02:01:37;97087.38;;;7.92;100.00
19108;BME280;9686;48.832;9.126;2024-01-06T02:04:03;97091.84;;;7.82;100.00
19108;BME280;9686;48.832;9.126;2024-01-06T02:06:28;97081.56;;;7.73;100.00
19108;BME280;9686;48.832;9.126;2024-01-06T02:08:54;97090.34;;;7.63;100.00
19108;BME280;9686;48.832;9.126;2024-01-06T02:11:19;97091.06;;;7.74;100.00
19108;BME280;9686;48.832;9.126;2024-01-06T02:13:44;97091.84;;;7.79;100.00
19108;BME280;9686;48.832;9.126;2024-01-06T02:16:10;97096.25;;;7.74;100.00
19108;BME280;9686;48.832;9.126;2024-01-06T02:18:35;97091.19;;;7.65;100.00
19108;BME280;9686;48.832;9.126;2024-01-06T02:21:02;97093.59;;;7.77;100.00
19108;BME280;9686;48.832;9.126;2024-01-06T02:23:29;97099.66;;;7.78;100.00
19108;BME280;9686;48.832;9.126;2024-01-06T02:25:55;97098.72;;;7.85;100.00
19108;BME280;9686;48.832;9.126;2024-01-06T02:28:20;97104.69;;;7.90;100.00
19108;BME280;9686;48.832;9.126;2024-01-06T02:30:46;97103.84;;;7.88;100.00
19108;BME280;9686;48.832;9.126;2024-01-06T02:33:11;97113.34;;;7.89;100.00
19108;BME280;9686;48.832;9.126;2024-01-06T02:35:37;97114.34;;;7.77;100.00
19108;BME280;9686;48.832;9.126;2024-01-06T02:38:02;97118.69;;;7.77;100.00
19108;BME280;9686;48.832;9.126;2024-01-06T02:40:27;97115.22;;;7.81;100.00
19108;BME280;9686;48.832;9.126;2024-01-06T02:42:53;97116.91;;;7.80;100.00
19108;BME280;9686;48.832;9.126;2024-01-06T02:45:19;97116.97;;;7.76;100.00
19108;BME280;9686;48.832;9.126;2024-01-06T02:47:44;97108.22;;;7.86;100.00
19108;BME280;9686;48.832;9.126;2024-01-06T02:50:09;97103.97;;;7.79;100.00
19108;BME280;9686;48.832;9.126;2024-01-06T02:52:34;97104.84;;;7.76;100.00
19108;BME280;9686;48.832;9.126;2024-01-06T02:55:00;97106.53;;;7.83;100.00
19108;BME280;9686;48.832;9.126;2024-01-06T02:57:27;97113.47;;;7.78;100.00
19108;BME280;9686;48.832;9.126;2024-01-06T02:59:52;97120.41;;;7.78;100.00
19108;BME280;9686;48.832;9.126;2024-01-06T03:02:18;97120.44;;;7.74;100.00
19108;BME280;9686;48.832;9.126;2024-01-06T03:04:43;97122.22;;;7.71;100.00
19108;BME280;9686;48.832;9.126;2024-01-06T03:07:08;97120.41;;;7.78;100.00
19108;BME280;9686;48.832;9.126;2024-01-06T03:09:34;97128.31;;;7.68;100.00
19108;BME280;9686;48.832;9.126;2024-01-06T03:11:59;97120.50;;;7.71;100.00
19108;BME280;9686;48.832;9.126;2024-01-06T03:14:24;97117.91;;;7.70;100.00
19108;BME280;9686;48.832;9.126;2024-01-06T03:16:49;97121.31;;;7.73;100.00
19108;BME280;9686;48.832;9.126;2024-01-06T03:19:15;97120.44;;;7.74;100.00
19108;BME280;9686;48.832;9.126;2024-01-06T03:21:40;97115.31;;;7.70;100.00
19108;BME280;9686;48.832;9.126;2024-01-06T03:24:07;97117.13;;;7.65;100.00
19108;BME280;9686;48.832;9.126;2024-01-06T03:26:32;97119.81;;;7.54;100.00
19108;BME280;9686;48.832;9.126;2024-01-06T03:28:58;97118.88;;;7.63;100.00
19108;BME280;9686;48.832;9.126;2024-01-06T03:31:24;97120.63;;;7.62;100.00
19108;BME280;9686;48.832;9.126;2024-01-06T03:33:49;97115.34;;;7.68;100.00
19108;BME280;9686;48.832;9.126;2024-01-06T03:36:16;97111.06;;;7.64;100.00
19108;BME280;9686;48.832;9.126;2024-01-06T03:38:42;97115.38;;;7.65;100.00
19108;BME280;9686;48.832;9.126;2024-01-06T03:41:07;97105.94;;;7.61;100.00
19108;BME280;9686;48.832;9.126;2024-01-06T03:43:32;97108.53;;;7.61;100.00
19108;BME280;9686;48.832;9.126;2024-01-06T03:45:58;97110.34;;;7.52;100.00
19108;BME280;9686;48.832;9.126;2024-01-06T03:48:25;97115.50;;;7.56;100.00
19108;BME280;9686;48.832;9.126;2024-01-06T03:50:50;97111.25;;;7.49;100.00
19108;BME280;9686;48.832;9.126;2024-01-06T03:53:16;97115.56;;;7.49;100.00
19108;BME280;9686;48.832;9.126;2024-01-06T03:55:41;97112.09;;;7.51;100.00
19108;BME280;9686;48.832;9.126;2024-01-06T03:58:06;97113.00;;;7.47;100.00
19108;BME280;9686;48.832;9.126;2024-01-06T04:00:31;97114.72;;;7.47;100.00
19108;BME280;9686;48.832;9.126;2024-01-06T04:02:57;97111.22;;;7.51;100.00
19108;BME280;9686;48.832;9.126;2024-01-06T04:05:22;97115.50;;;7.53;100.00
19108;BME280;9686;48.832;9.126;2024-01-06T04:07:47;97120.00;;;7.39;100.00
19108;BME280;9686;48.832;9.126;2024-01-06T04:10:13;97119.13;;;7.40;100.00
19108;BME280;9686;48.832;9.126;2024-01-06T04:12:38;97119.84;;;7.53;100.00
19108;BME280;9686;48.832;9.126;2024-01-06T04:15:03;97113.03;;;7.46;100.00
19108;BME280;9686;48.832;9.126;2024-01-06T04:17:29;97121.63;;;7.49;100.00
19108;BME280;9686;48.832;9.126;2024-01-06T04:19:55;97127.72;;;7.43;100.00
19108;BME280;9686;48.832;9.126;2024-01-06T04:22:20;97119.88;;;7.50;100.00
19108;BME280;9686;48.832;9.126;2024-01-06T04:24:45;97122.44;;;7.51;100.00
19108;BME280;9686;48.832;9.126;2024-01-06T04:27:10;97132.84;;;7.50;100.00
19108;BME280;9686;48.832;9.126;2024-01-06T04:29:36;97130.16;;;7.60;100.00
19108;BME280;9686;48.832;9.126;2024-01-06T04:32:01;97131.91;;;7.57;100.00
19108;BME280;9686;48.832;9.126;2024-01-06T04:34:26;97141.41;;;7.58;100.00
19108;BME280;9686;48.832;9.126;2024-01-06T04:36:52;97142.19;;;7.66;100.00
19108;BME280;9686;48.832;9.126;2024-01-06T04:39:17;97136.13;;;7.65;100.00
19108;BME280;9686;48.832;9.126;2024-01-06T04:41:43;97132.81;;;7.53;100.00
19108;BME280;9686;48.832;9.126;2024-01-06T04:44:08;97137.06;;;7.60;100.00
19108;BME280;9686;48.832;9.126;2024-01-06T04:46:33;97131.91;;;7.58;100.00
19108;BME280;9686;48.832;9.126;2024-01-06T04:48:59;97131.13;;;7.49;100.00
19108;BME280;9686;48.832;9.126;2024-01-06T04:51:24;97137.97;;;7.54;100.00
19108;BME280;9686;48.832;9.126;2024-01-06T04:53:49;97135.59;;;7.36;100.00
19108;BME280;9686;48.832;9.126;2024-01-06T04:56:15;97136.38;;;7.44;100.00
19108;BME280;9686;48.832;9.126;2024-01-06T04:58:40;97139.00;;;7.41;100.00
19108;BME280;9686;48.832;9.126;2024-01-06T05:01:05;97146.88;;;7.33;100.00
19108;BME280;9686;48.832;9.126;2024-01-06T05:03:31;97144.09;;;7.49;100.00
19108;BME280;9686;48.832;9.126;2024-01-06T05:05:56;97148.47;;;7.45;100.00
19108;BME280;9686;48.832;9.126;2024-01-06T05:08:21;97147.69;;;7.37;100.00
19108;BME280;9686;48.832;9.126;2024-01-06T05:10:48;97156.28;;;7.40;100.00
19108;BME280;9686;48.832;9.126;2024-01-06T05:13:14;97151.09;;;7.40;100.00
19108;BME280;9686;48.832;9.126;2024-01-06T05:15:39;97156.19;;;7.48;100.00
19108;BME280;9686;48.832;9.126;2024-01-06T05:18:05;97155.41;;;7.43;100.00
19108;BME280;9686;48.832;9.126;2024-01-06T05:20:30;97154.47;;;7.47;100.00
19108;BME280;9686;48.832;9.126;2024-01-06T05:22:55;97158.91;;;7.39;100.00
19108;BME280;9686;48.832;9.126;2024-01-06T05:25:20;97162.97;;;7.61;100.00
19108;BME280;9686;48.832;9.126;2024-01-06T05:27:46;97164.84;;;7.47;100.00
19108;BME280;9686;48.832;9.126;2024-01-06T05:30:12;97158.00;;;7.43;100.00
19108;BME280;9686;48.832;9.126;2024-01-06T05:32:37;97172.56;;;7.53;100.00
19108;BME280;9686;48.832;9.126;2024-01-06T05:35:04;97174.25;;;7.59;100.00
19108;BME280;9686;48.832;9.126;2024-01-06T05:37:29;97171.63;;;7.60;100.00
19108;BME280;9686;48.832;9.126;2024-01-06T05:39:55;97170.78;;;7.60;100.00
19108;BME280;9686;48.832;9.126;2024-01-06T05:42:20;97174.28;;;7.57;100.00
19108;BME280;9686;48.832;9.126;2024-01-06T05:44:45;97181.38;;;7.38;100.00
19108;BME280;9686;48.832;9.126;2024-01-06T05:47:11;97175.22;;;7.47;100.00
19108;BME280;9686;48.832;9.126;2024-01-06T05:49:36;97167.44;;;7.47;100.00
19108;BME280;9686;48.832;9.126;2024-01-06T05:52:01;97173.44;;;7.51;100.00
19108;BME280;9686;48.832;9.126;2024-01-06T05:54:27;97176.00;;;7.54;100.00
19108;BME280;9686;48.832;9.126;2024-01-06T05:56:52;97183.81;;;7.51;100.00
19108;BME280;9686;48.832;9.126;2024-01-06T05:59:17;97188.13;;;7.52;100.00
19108;BME280;9686;48.832;9.126;2024-01-06T06:01:43;97190.81;;;7.44;100.00
19108;BME280;9686;48.832;9.126;2024-01-06T06:04:10;97196.09;;;7.36;100.00
19108;BME280;9686;48.832;9.126;2024-01-06T06:06:35;97209.88;;;7.38;100.00
19108;BME280;9686;48.832;9.126;2024-01-06T06:09:00;97215.88;;;7.43;100.00
19108;BME280;9686;48.832;9.126;2024-01-06T06:11:26;97223.69;;;7.42;100.00
19108;BME280;9686;48.832;9.126;2024-01-06T06:13:52;97225.34;;;7.48;100.00
19108;BME280;9686;48.832;9.126;2024-01-06T06:16:17;97224.50;;;7.46;100.00
19108;BME280;9686;48.832;9.126;2024-01-06T06:18:42;97228.78;;;7.48;100.00
19108;BME280;9686;48.832;9.126;2024-01-06T06:21:08;97237.44;;;7.49;100.00
19108;BME280;9686;48.832;9.126;2024-01-06T06:23:34;97232.31;;;7.42;100.00
19108;BME280;9686;48.832;9.126;2024-01-06T06:26:03;97229.69;;;7.46;100.00
19108;BME280;9686;48.832;9.126;2024-01-06T06:28:28;97231.38;;;7.48;100.00
19108;BME280;9686;48.832;9.126;2024-01-06T06:30:53;97235.75;;;7.45;100.00
19108;BME280;9686;48.832;9.126;2024-01-06T06:33:18;97238.28;;;7.51;100.00
19108;BME280;9686;48.832;9.126;2024-01-06T06:35:44;97234.84;;;7.49;100.00
19108;BME280;9686;48.832;9.126;2024-01-06T06:38:09;97240.97;;;7.41;100.00
19108;BME280;9686;48.832;9.126;2024-01-06T06:40:34;97240.84;;;7.52;100.00
19108;BME280;9686;48.832;9.126;2024-01-06T06:43:00;97243.41;;;7.58;100.00
19108;BME280;9686;48.832;9.126;2024-01-06T06:45:25;97250.16;;;7.71;100.00
19108;BME280;9686;48.832;9.126;2024-01-06T06:47:50;97249.38;;;7.65;100.00
19108;BME280;9686;48.832;9.126;2024-01-06T06:50:18;97257.03;;;7.77;100.00
19108;BME280;9686;48.832;9.126;2024-01-06T06:52:46;97254.53;;;7.68;100.00
19108;BME280;9686;48.832;9.126;2024-01-06T06:55:11;97262.25;;;7.72;100.00
19108;BME280;9686;48.832;9.126;2024-01-06T06:57:36;97263.97;;;7.73;100.00
19108;BME280;9686;48.832;9.126;2024-01-06T07:00:02;97263.16;;;7.71;100.00
19108;BME280;9686;48.832;9.126;2024-01-06T07:02:27;97263.06;;;7.79;100.00
19108;BME280;9686;48.832;9.126;2024-01-06T07:04:53;97259.75;;;7.66;100.00
19108;BME280;9686;48.832;9.126;2024-01-06T07:07:18;97256.16;;;7.81;100.00
19108;BME280;9686;48.832;9.126;2024-01-06T07:09:44;97259.59;;;7.80;100.00
19108;BME280;9686;48.832;9.126;2024-01-06T07:12:09;97262.97;;;7.88;100.00
19108;BME280;9686;48.832;9.126;2024-01-06T07:14:34;97276.91;;;7.78;100.00
19108;BME280;9686;48.832;9.126;2024-01-06T07:16:59;97270.03;;;7.72;100.00
19108;BME280;9686;48.832;9.126;2024-01-06T07:19:25;97269.16;;;7.75;100.00
19108;BME280;9686;48.832;9.126;2024-01-06T07:21:50;97274.38;;;7.70;100.00
19108;BME280;9686;48.832;9.126;2024-01-06T07:24:15;97283.91;;;7.71;100.00
19108;BME280;9686;48.832;9.126;2024-01-06T07:26:41;97279.50;;;7.81;100.00
19108;BME280;9686;48.832;9.126;2024-01-06T07:29:06;97279.47;;;7.84;100.00
19108;BME280;9686;48.832;9.126;2024-01-06T07:31:33;97276.94;;;7.73;100.00
19108;BME280;9686;48.832;9.126;2024-01-06T07:33:58;97282.97;;;7.76;100.00
19108;BME280;9686;48.832;9.126;2024-01-06T07:36:23;97284.59;;;7.87;100.00
19108;BME280;9686;48.832;9.126;2024-01-06T07:38:49;97283.81;;;7.82;100.00
19108;BME280;9686;48.832;9.126;2024-01-06T07:41:14;97284.69;;;7.78;100.00
19108;BME280;9686;48.832;9.126;2024-01-06T07:43:39;97288.06;;;7.88;100.00
19108;BME280;9686;48.832;9.126;2024-01-06T07:46:04;97297.69;;;7.75;100.00
19108;BME280;9686;48.832;9.126;2024-01-06T07:48:32;97292.41;;;7.87;100.00
19108;BME280;9686;48.832;9.126;2024-01-06T07:50:57;97292.38;;;7.89;100.00
19108;BME280;9686;48.832;9.126;2024-01-06T07:53:22;97290.75;;;7.76;100.00
19108;BME280;9686;48.832;9.126;2024-01-06T07:55:47;97289.00;;;7.79;100.00
19108;BME280;9686;48.832;9.126;2024-01-06T07:58:13;97287.16;;;7.90;100.00
19108;BME280;9686;48.832;9.126;2024-01-06T08:00:38;97288.00;;;7.94;100.00
19108;BME280;9686;48.832;9.126;2024-01-06T08:03:03;97278.41;;;8.00;100.00
19108;BME280;9686;48.832;9.126;2024-01-06T08:05:31;97289.72;;;7.93;100.00
19108;BME280;9686;48.832;9.126;2024-01-06T08:07:56;97286.16;;;8.03;100.00
19108;BME280;9686;48.832;9.126;2024-01-06T08:10:22;97295.63;;;8.06;100.00
19108;BME280;9686;48.832;9.126;2024-01-06T08:12:47;97298.22;;;8.06;100.00
19108;BME280;9686;48.832;9.126;2024-01-06T08:15:13;97289.66;;;7.99;100.00
19108;BME280;9686;48.832;9.126;2024-01-06T08:17:38;97300.00;;;8.02;100.00
19108;BME280;9686;48.832;9.126;2024-01-06T08:20:06;97300.06;;;7.96;100.00
19108;BME280;9686;48.832;9.126;2024-01-06T08:22:32;97292.19;;;8.04;100.00
19108;BME280;9686;48.832;9.126;2024-01-06T08:24:57;97298.13;;;8.17;100.00
19108;BME280;9686;48.832;9.126;2024-01-06T08:27:22;97293.75;;;8.20;100.00
19108;BME280;9686;48.832;9.126;2024-01-06T08:29:49;97299.91;;;8.12;100.00
19108;BME280;9686;48.832;9.126;2024-01-06T08:32:15;97314.41;;;8.29;100.00
19108;BME280;9686;48.832;9.126;2024-01-06T08:34:40;97310.09;;;8.27;100.00
19108;BME280;9686;48.832;9.126;2024-01-06T08:37:05;97304.03;;;8.34;100.00
19108;BME280;9686;48.832;9.126;2024-01-06T08:39:31;97311.78;;;8.32;100.00
19108;BME280;9686;48.832;9.126;2024-01-06T08:41:56;97312.66;;;8.31;100.00
19108;BME280;9686;48.832;9.126;2024-01-06T08:44:22;97313.47;;;8.40;100.00
19108;BME280;9686;48.832;9.126;2024-01-06T08:46:47;97317.91;;;8.27;100.00
19108;BME280;9686;48.832;9.126;2024-01-06T08:49:12;97315.28;;;8.34;100.00
19108;BME280;9686;48.832;9.126;2024-01-06T08:51:38;97317.84;;;8.36;100.00
19108;BME280;9686;48.832;9.126;2024-01-06T08:54:03;97318.72;;;8.30;100.00
19108;BME280;9686;48.832;9.126;2024-01-06T08:56:30;97326.53;;;8.29;100.00
19108;BME280;9686;48.832;9.126;2024-01-06T08:58:55;97327.25;;;8.45;100.00
19108;BME280;9686;48.832;9.126;2024-01-06T09:01:22;97333.06;;;8.67;100.00
19108;BME280;9686;48.832;9.126;2024-01-06T09:03:47;97331.94;;;8.84;100.00
19108;BME280;9686;48.832;9.126;2024-01-06T09:06:14;97334.66;;;8.75;100.00
19108;BME280;9686;48.832;9.126;2024-01-06T09:08:39;97327.78;;;8.71;100.00
19108;BME280;9686;48.832;9.126;2024-01-06T09:11:05;97334.59;;;8.80;100.00
19108;BME280;9686;48.832;9.126;2024-01-06T09:13:30;97334.72;;;8.72;100.00
19108;BME280;9686;48.832;9.126;2024-01-06T09:15:57;97332.88;;;8.79;100.00
19108;BME280;9686;48.832;9.126;2024-01-06T09:18:22;97332.94;;;8.74;100.00
19108;BME280;9686;48.832;9.126;2024-01-06T09:20:48;97339.03;;;8.73;100.00
19108;BME280;9686;48.832;9.126;2024-01-06T09:23:13;97344.06;;;8.84;100.00
19108;BME280;9686;48.832;9.126;2024-01-06T09:25:38;97342.09;;;9.01;100.00
19108;BME280;9686;48.832;9.126;2024-01-06T09:28:05;97350.13;;;8.86;100.00
19108;BME280;9686;48.832;9.126;2024-01-06T09:30:30;97352.88;;;8.74;100.00
19108;BME280;9686;48.832;9.126;2024-01-06T09:32:56;97350.94;;;8.91;100.00
19108;BME280;9686;48.832;9.126;2024-01-06T09:35:21;97360.41;;;8.95;100.00
19108;BME280;9686;48.832;9.126;2024-01-06T09:37:46;97355.25;;;8.92;100.00
19108;BME280;9686;48.832;9.126;2024-01-06T09:40:12;97357.91;;;8.87;100.00
19108;BME280;9686;48.832;9.126;2024-01-06T09:42:41;97367.44;;;8.87;100.00
19108;BME280;9686;48.832;9.126;2024-01-06T09:45:07;97372.50;;;8.98;100.00
19108;BME280;9686;48.832;9.126;2024-01-06T09:47:34;97368.16;;;8.96;100.00
19108;BME280;9686;48.832;9.126;2024-01-06T09:50:01;97373.38;;;8.95;100.00
19108;BME280;9686;48.832;9.126;2024-01-06T09:52:32;97373.44;;;8.90;100.00
19108;BME280;9686;48.832;9.126;2024-01-06T09:54:59;97379.72;;;8.73;100.00
19108;BME280;9686;48.832;9.126;2024-01-06T09:57:25;97381.38;;;8.78;100.00
19108;BME280;9686;48.832;9.126;2024-01-06T09:59:51;97381.22;;;8.92;100.00
19108;BME280;9686;48.832;9.126;2024-01-06T10:02:17;97383.84;;;8.90;100.00
19108;BME280;9686;48.832;9.126;2024-01-06T10:04:43;97380.50;;;8.79;100.00
19108;BME280;9686;48.832;9.126;2024-01-06T10:07:10;97379.69;;;8.76;100.00
19108;BME280;9686;48.832;9.126;2024-01-06T10:09:37;97379.56;;;8.86;100.00
19108;BME280;9686;48.832;9.126;2024-01-06T10:12:03;97382.09;;;8.92;100.00
19108;BME280;9686;48.832;9.126;2024-01-06T10:14:28;97382.88;;;8.98;100.00
19108;BME280;9686;48.832;9.126;2024-01-06T10:16:54;97379.44;;;8.95;100.00
19108;BME280;9686;48.832;9.126;2024-01-06T10:19:19;97382.88;;;8.98;100.00
19108;BME280;9686;48.832;9.126;2024-01-06T10:21:44;97381.28;;;8.87;100.00
19108;BME280;9686;48.832;9.126;2024-01-06T10:24:10;97383.91;;;8.87;100.00
19108;BME280;9686;48.832;9.126;2024-01-06T10:26:36;97376.91;;;8.92;100.00
19108;BME280;9686;48.832;9.126;2024-01-06T10:29:02;97380.91;;;8.47;100.00
19108;BME280;9686;48.832;9.126;2024-01-06T10:31:29;97382.28;;;8.76;100.00
19108;BME280;9686;48.832;9.126;2024-01-06T10:33:54;97382.19;;;8.83;100.00
19108;BME280;9686;48.832;9.126;2024-01-06T10:36:23;97387.34;;;8.89;100.00
19108;BME280;9686;48.832;9.126;2024-01-06T10:38:49;97377.78;;;8.90;100.00
19108;BME280;9686;48.832;9.126;2024-01-06T10:41:16;97383.84;;;8.92;100.00
19108;BME280;9686;48.832;9.126;2024-01-06T10:43:42;97376.97;;;8.86;100.00
19108;BME280;9686;48.832;9.126;2024-01-06T10:46:09;97384.94;;;8.73;100.00
19108;BME280;9686;48.832;9.126;2024-01-06T10:48:38;97384.06;;;8.72;100.00
19108;BME280;9686;48.832;9.126;2024-01-06T10:51:08;97384.00;;;8.78;100.00
19108;BME280;9686;48.832;9.126;2024-01-06T10:53:34;97384.88;;;8.76;100.00
19108;BME280;9686;48.832;9.126;2024-01-06T10:56:04;97384.84;;;8.79;100.00
19108;BME280;9686;48.832;9.126;2024-01-06T10:58:32;97388.50;;;8.64;100.00
19108;BME280;9686;48.832;9.126;2024-01-06T11:00:58;97383.19;;;8.73;100.00
19108;BME280;9686;48.832;9.126;2024-01-06T11:03:26;97386.81;;;8.60;100.00
19108;BME280;9686;48.832;9.126;2024-01-06T11:05:53;97384.25;;;8.55;100.00
19108;BME280;9686;48.832;9.126;2024-01-06T11:08:21;97375.41;;;8.72;100.00
19108;BME280;9686;48.832;9.126;2024-01-06T11:10:47;97380.63;;;8.70;100.00
19108;BME280;9686;48.832;9.126;2024-01-06T11:13:13;97384.38;;;8.45;100.00
19108;BME280;9686;48.832;9.126;2024-01-06T11:15:50;97380.56;;;8.75;100.00
19108;BME280;9686;48.832;9.126;2024-01-06T11:18:36;97379.59;;;8.82;100.00
19108;BME280;9686;48.832;9.126;2024-01-06T11:21:21;97379.72;;;8.74;100.00
19108;BME280;9686;48.832;9.126;2024-01-06T11:24:13;97387.00;;;8.43;100.00
19108;BME280;9686;48.832;9.126;2024-01-06T11:26:42;97375.75;;;8.43;100.00
19108;BME280;9686;48.832;9.126;2024-01-06T11:29:08;97375.69;;;8.47;100.00
19108;BME280;9686;48.832;9.126;2024-01-06T11:31:33;97373.09;;;8.49;100.00
19108;BME280;9686;48.832;9.126;2024-01-06T11:34:14;97373.22;;;8.32;100.00
19108;BME280;9686;48.832;9.126;2024-01-06T11:36:40;97375.81;;;8.38;100.00
19108;BME280;9686;48.832;9.126;2024-01-06T11:39:05;97366.69;;;8.77;100.00
19108;BME280;9686;48.832;9.126;2024-01-06T11:41:52;97366.53;;;8.91;100.00
19108;BME280;9686;48.832;9.126;2024-01-06T11:44:21;97353.84;;;8.67;100.00
19108;BME280;9686;48.832;9.126;2024-01-06T11:46:47;97355.63;;;8.61;100.00
19108;BME280;9686;48.832;9.126;2024-01-06T11:49:19;97346.84;;;8.70;100.00
19108;BME280;9686;48.832;9.126;2024-01-06T11:51:45;97355.59;;;8.64;100.00
19108;BME280;9686;48.832;9.126;2024-01-06T11:54:11;97356.59;;;8.53;100.00
19108;BME280;9686;48.832;9.126;2024-01-06T11:56:37;97355.78;;;8.48;100.00
19108;BME280;9686;48.832;9.126;2024-01-06T11:59:03;97359.00;;;8.68;100.00
19108;BME280;9686;48.832;9.126;2024-01-06T12:01:36;97344.00;;;8.91;100.00
19108;BME280;9686;48.832;9.126;2024-01-06T12:04:01;97349.06;;;8.99;100.00
19108;BME280;9686;48.832;9.126;2024-01-06T12:06:28;97347.41;;;8.93;100.00
19108;BME280;9686;48.832;9.126;2024-01-06T12:09:12;97345.53;;;9.03;100.00
19108;BME280;9686;48.832;9.126;2024-01-06T12:11:41;97347.53;;;8.84;100.00
19108;BME280;9686;48.832;9.126;2024-01-06T12:14:09;97346.59;;;8.90;100.00
19108;BME280;9686;48.832;9.126;2024-01-06T12:16:34;97349.13;;;8.96;100.00
19108;BME280;9686;48.832;9.126;2024-01-06T12:19:00;97352.72;;;8.84;100.00
19108;BME280;9686;48.832;9.126;2024-01-06T12:21:29;97345.13;;;8.69;100.00
19108;BME280;9686;48.832;9.126;2024-01-06T12:24:15;97345.06;;;8.74;100.00
19108;BME280;9686;48.832;9.126;2024-01-06T12:26:44;97344.94;;;8.86;100.00
19108;BME280;9686;48.832;9.126;2024-01-06T12:29:10;97344.84;;;8.92;100.00
19108;BME280;9686;48.832;9.126;2024-01-06T12:31:35;97349.16;;;8.93;100.00
19108;BME280;9686;48.832;9.126;2024-01-06T12:34:00;97344.88;;;8.89;100.00
19108;BME280;9686;48.832;9.126;2024-01-06T12:36:26;97346.63;;;8.88;100.00
19108;BME280;9686;48.832;9.126;2024-01-06T12:38:51;97344.22;;;8.73;100.00
19108;BME280;9686;48.832;9.126;2024-01-06T12:41:16;97338.16;;;8.73;100.00
19108;BME280;9686;48.832;9.126;2024-01-06T12:43:41;97337.13;;;8.87;100.00
19108;BME280;9686;48.832;9.126;2024-01-06T12:46:07;97338.06;;;8.80;100.00
19108;BME280;9686;48.832;9.126;2024-01-06T12:48:32;97340.59;;;8.86;100.00
19108;BME280;9686;48.832;9.126;2024-01-06T12:50:57;97339.81;;;8.78;100.00
19108;BME280;9686;48.832;9.126;2024-01-06T12:53:22;97343.16;;;8.88;100.00
19108;BME280;9686;48.832;9.126;2024-01-06T12:55:48;97338.88;;;8.85;100.00
19108;BME280;9686;48.832;9.126;2024-01-06T12:58:13;97335.66;;;8.65;100.00
19108;BME280;9686;48.832;9.126;2024-01-06T13:00:39;97337.31;;;8.72;100.00
19108;BME280;9686;48.832;9.126;2024-01-06T13:03:05;97340.88;;;8.65;100.00